Time;durP1;ratioP1;P1;durP2;ratioP2;P2;SDS_P1;SDS_P2;PMS_P1;PMS_P2;Temp;Humidity;BMP_temperature;BMP_pressure;BME280_temperature;BME280_humidity;BME280_pressure;Samples;Min_cycle;Max_cycle;Signal;HPM_P1;HPM_P2
2021/06/22 00:01:56;;;;;;;4.00;3.60;;;18.30;99.90;;;;;;4933694;29;20876;-69
2021/06/22 00:04:23;;;;;;;3.87;3.13;;;18.40;99.90;;;;;;4933677;29;20472;-69
2021/06/22 00:06:50;;;;;;;4.13;3.70;;;18.40;99.90;;;;;;4933554;29;20492;-69
2021/06/22 00:09:16;;;;;;;4.23;3.40;;;18.30;99.90;;;;;;4933140;29;20555;-68
2021/06/22 00:11:43;;;;;;;4.07;3.70;;;18.30;99.90;;;;;;4933280;29;20464;-68
2021/06/22 00:14:10;;;;;;;4.37;3.97;;;18.40;99.90;;;;;;4933306;29;20465;-69
2021/06/22 00:16:37;;;;;;;4.17;3.57;;;18.30;99.90;;;;;;4933230;29;20492;-69
2021/06/22 00:19:05;;;;;;;3.90;3.60;;;18.30;99.90;;;;;;4933244;29;20469;-68
2021/06/22 00:21:31;;;;;;;5.27;3.87;;;18.30;99.90;;;;;;4932667;29;20507;-69
2021/06/22 00:23:58;;;;;;;6.57;4.13;;;18.30;99.90;;;;;;4933446;29;20471;-68
2021/06/22 00:26:25;;;;;;;4.23;3.83;;;18.30;99.90;;;;;;4933058;29;20481;-69
2021/06/22 00:28:51;;;;;;;4.00;3.70;;;18.30;99.90;;;;;;4932614;29;20480;-69
2021/06/22 00:31:18;;;;;;;4.47;4.07;;;18.30;99.90;;;;;;5006767;23;20991;-74
2021/06/22 00:33:45;;;;;;;4.03;3.73;;;18.30;99.90;;;;;;4968674;28;20463;-73
2021/06/22 00:36:13;;;;;;;4.40;4.00;;;18.30;99.90;;;;;;4969695;28;20486;-74
2021/06/22 00:38:41;;;;;;;8.07;4.13;;;18.30;99.90;;;;;;4971679;28;20463;-74
2021/06/22 00:41:08;;;;;;;4.30;3.90;;;18.20;99.90;;;;;;4970987;28;20494;-74
2021/06/22 00:43:38;;;;;;;4.77;3.83;;;18.20;99.90;;;;;;4971702;28;20455;-74
2021/06/22 00:46:04;;;;;;;3.93;3.63;;;18.20;99.90;;;;;;4971404;28;20487;-74
2021/06/22 00:48:31;;;;;;;5.37;3.60;;;18.20;99.90;;;;;;4971557;28;20977;-74
2021/06/22 00:50:58;;;;;;;4.13;3.73;;;18.20;99.90;;;;;;4971267;28;20462;-74
2021/06/22 00:53:26;;;;;;;3.73;3.40;;;18.10;99.90;;;;;;4971463;28;20463;-74
2021/06/22 00:55:53;;;;;;;4.17;3.40;;;18.10;99.90;;;;;;4971470;28;20508;-73
2021/06/22 00:58:21;;;;;;;3.10;2.90;;;18.00;99.90;;;;;;4971057;28;20467;-74
2021/06/22 01:00:48;;;;;;;5.13;3.30;;;18.00;99.90;;;;;;4971026;28;20463;-73
2021/06/22 01:03:14;;;;;;;6.50;4.10;;;18.00;99.90;;;;;;4971075;28;20467;-73
2021/06/22 01:05:41;;;;;;;5.60;3.50;;;17.90;99.90;;;;;;4971308;28;20486;-73
2021/06/22 01:08:09;;;;;;;3.70;3.40;;;17.90;99.90;;;;;;4971376;28;20482;-73
2021/06/22 01:10:37;;;;;;;4.40;3.77;;;17.90;99.90;;;;;;4970581;28;20478;-73
2021/06/22 01:13:04;;;;;;;3.87;3.57;;;17.90;99.90;;;;;;4971216;28;20451;-73
2021/06/22 01:15:32;;;;;;;4.10;3.60;;;17.90;99.90;;;;;;4970869;28;20851;-73
2021/06/22 01:18:00;;;;;;;3.70;3.30;;;17.90;99.90;;;;;;4971336;28;20470;-73
2021/06/22 01:20:31;;;;;;;3.20;3.00;;;17.80;99.90;;;;;;4970635;28;20822;-73
2021/06/22 01:23:00;;;;;;;4.57;3.67;;;17.80;99.90;;;;;;4971241;28;20537;-73
2021/06/22 01:25:27;;;;;;;3.47;3.17;;;17.80;99.90;;;;;;4970500;28;21001;-73
2021/06/22 01:27:55;;;;;;;3.73;3.37;;;17.80;99.90;;;;;;4971013;28;20962;-74
2021/06/22 01:30:23;;;;;;;4.77;3.17;;;17.80;99.90;;;;;;4970381;28;20495;-73
2021/06/22 01:32:50;;;;;;;3.50;3.20;;;17.70;99.90;;;;;;4970628;28;20978;-73
2021/06/22 01:35:17;;;;;;;4.37;3.97;;;17.70;99.90;;;;;;4970883;28;20491;-73
2021/06/22 01:37:55;;;;;;;3.60;3.30;;;17.70;99.90;;;;;;4970720;28;20909;-73
2021/06/22 01:40:23;;;;;;;4.03;3.10;;;17.70;99.90;;;;;;4969359;28;20832;-73
2021/06/22 01:42:50;;;;;;;5.23;3.70;;;17.70;99.90;;;;;;4970615;28;20498;-73
2021/06/22 01:45:18;;;;;;;6.13;4.17;;;17.70;99.90;;;;;;4970615;28;20487;-73
2021/06/22 01:47:45;;;;;;;4.17;3.80;;;17.60;99.90;;;;;;4970824;28;20458;-73
2021/06/22 01:50:14;;;;;;;3.57;3.27;;;17.60;99.90;;;;;;4970125;28;20471;-73
2021/06/22 01:52:43;;;;;;;4.23;3.60;;;17.60;99.90;;;;;;4970624;28;20463;-73
2021/06/22 01:57:53;;;;;;;3.77;3.47;;;17.50;99.90;;;;;;4970723;28;20482;-73
2021/06/22 02:00:20;;;;;;;6.60;3.40;;;17.50;99.90;;;;;;4970022;28;20459;-73
2021/06/22 02:02:46;;;;;;;3.70;3.10;;;17.50;99.90;;;;;;4970616;28;20483;-73
2021/06/22 02:05:14;;;;;;;4.83;3.57;;;17.40;99.90;;;;;;4970212;28;20486;-73
2021/06/22 02:07:41;;;;;;;4.30;3.70;;;17.40;99.90;;;;;;4970605;28;20498;-74
2021/06/22 02:10:09;;;;;;;3.60;3.30;;;17.40;99.90;;;;;;4970149;28;20467;-73
2021/06/22 02:12:36;;;;;;;4.00;3.60;;;17.40;99.90;;;;;;4970380;28;20466;-73
2021/06/22 02:15:06;;;;;;;4.27;3.87;;;17.40;99.90;;;;;;4970603;28;20483;-73
2021/06/22 02:17:32;;;;;;;5.80;3.83;;;17.30;99.90;;;;;;4970141;28;20467;-73
2021/06/22 02:19:59;;;;;;;3.80;3.50;;;17.30;99.90;;;;;;4970203;28;20471;-73
2021/06/22 02:22:26;;;;;;;4.20;3.80;;;17.30;99.90;;;;;;4970027;28;20518;-73
2021/06/22 02:24:53;;;;;;;4.70;3.07;;;17.30;99.90;;;;;;4970549;28;20491;-73
2021/06/22 02:27:24;;;;;;;4.33;3.50;;;17.30;99.90;;;;;;4970193;28;20463;-73
2021/06/22 02:29:51;;;;;;;5.90;4.23;;;17.30;99.90;;;;;;4969921;28;20463;-73
2021/06/22 02:32:19;;;;;;;4.20;3.80;;;17.20;99.90;;;;;;4969855;28;20851;-73
2021/06/22 02:34:46;;;;;;;7.33;3.77;;;17.30;99.90;;;;;;4969843;28;20938;-73
2021/06/22 02:37:13;;;;;;;6.57;3.70;;;17.20;99.90;;;;;;4970020;28;20552;-73
2021/06/22 02:39:39;;;;;;;4.40;4.00;;;17.20;99.90;;;;;;4969130;28;20463;-73
2021/06/22 02:42:07;;;;;;;4.10;3.73;;;17.20;99.90;;;;;;4969832;28;21035;-73
2021/06/22 02:44:34;;;;;;;3.83;3.47;;;17.20;99.90;;;;;;4969646;28;20503;-73
2021/06/22 02:47:01;;;;;;;4.33;3.93;;;17.20;99.90;;;;;;4970022;28;20470;-73
2021/06/22 02:49:29;;;;;;;4.03;3.63;;;17.20;99.90;;;;;;4969260;28;20788;-73
2021/06/22 02:51:56;;;;;;;5.07;3.50;;;17.20;99.90;;;;;;4971954;28;20465;-74
2021/06/22 02:54:22;;;;;;;4.00;3.70;;;17.20;99.90;;;;;;4973210;28;20470;-73
2021/06/22 02:56:49;;;;;;;4.37;3.97;;;17.10;99.90;;;;;;4972982;28;20486;-73
2021/06/22 02:59:16;;;;;;;4.23;3.83;;;17.20;99.90;;;;;;4972675;28;20459;-73
2021/06/22 03:01:43;;;;;;;5.07;4.67;;;17.10;99.90;;;;;;4972824;28;20482;-73
2021/06/22 03:04:10;;;;;;;4.40;3.90;;;17.20;99.90;;;;;;4973229;28;20474;-73
2021/06/22 03:06:38;;;;;;;5.90;4.47;;;17.10;99.90;;;;;;4972796;28;20855;-73
2021/06/22 03:09:05;;;;;;;4.43;4.00;;;17.20;99.90;;;;;;4973243;28;20946;-73
2021/06/22 03:11:32;;;;;;;6.83;3.97;;;17.10;99.90;;;;;;4972307;28;20474;-73
2021/06/22 03:13:59;;;;;;;4.57;4.17;;;17.10;99.90;;;;;;4972930;28;20470;-73
2021/06/22 03:16:26;;;;;;;5.10;4.70;;;17.10;99.90;;;;;;4972523;28;20489;-73
2021/06/22 03:18:53;;;;;;;5.33;4.67;;;17.10;99.90;;;;;;4972800;28;20812;-73
2021/06/22 03:21:19;;;;;;;5.27;4.70;;;17.10;99.90;;;;;;4972352;28;20858;-73
2021/06/22 03:23:48;;;;;;;5.90;4.67;;;17.10;99.90;;;;;;4972523;28;20494;-73
2021/06/22 03:26:15;;;;;;;5.80;5.27;;;17.10;99.90;;;;;;4972548;28;20487;-73
2021/06/22 03:28:42;;;;;;;5.67;4.83;;;17.10;99.90;;;;;;4972433;28;20467;-74
2021/06/22 03:31:09;;;;;;;4.70;4.20;;;17.10;99.90;;;;;;4972430;28;20462;-73
2021/06/22 03:33:36;;;;;;;5.33;4.83;;;17.10;99.90;;;;;;4972359;28;20966;-73
2021/06/22 03:36:03;;;;;;;5.00;4.47;;;17.10;99.90;;;;;;4972691;28;20491;-73
2021/06/22 03:38:30;;;;;;;5.27;4.73;;;17.10;99.90;;;;;;4970464;28;20474;-72
2021/06/22 03:40:59;;;;;;;4.73;4.30;;;17.10;99.90;;;;;;4970992;28;20470;-73
2021/06/22 03:43:26;;;;;;;4.93;4.53;;;17.10;99.90;;;;;;4972068;28;20636;-74
2021/06/22 03:45:53;;;;;;;4.90;4.50;;;17.10;99.90;;;;;;4972347;28;20478;-72
2021/06/22 03:48:20;;;;;;;5.10;4.70;;;17.10;99.90;;;;;;4969715;28;20510;-73
2021/06/22 03:50:46;;;;;;;4.90;4.50;;;17.10;99.90;;;;;;4972004;28;20463;-74
2021/06/22 03:53:13;;;;;;;5.07;4.57;;;17.10;99.90;;;;;;4971805;28;20950;-74
2021/06/22 03:55:40;;;;;;;6.37;5.13;;;17.10;99.90;;;;;;4969295;28;20994;-77
2021/06/22 03:58:08;;;;;;;5.10;4.67;;;17.20;99.90;;;;;;4971557;28;20831;-77
2021/06/22 04:00:35;;;;;;;5.60;4.50;;;17.10;99.90;;;;;;4970855;28;20470;-78
2021/06/22 04:03:02;;;;;;;4.63;4.23;;;17.20;99.90;;;;;;4970883;28;20491;-77
2021/06/22 04:05:32;;;;;;;5.10;4.57;;;17.20;99.90;;;;;;4971277;28;21068;-76
2021/06/22 04:08:00;;;;;;;5.00;4.60;;;17.20;99.90;;;;;;4971158;28;20876;-76
2021/06/22 04:10:28;;;;;;;7.03;4.80;;;17.20;99.90;;;;;;4970674;28;20459;-77
2021/06/22 04:12:55;;;;;;;7.20;4.90;;;17.30;99.90;;;;;;4971870;28;20462;-76
2021/06/22 04:15:23;;;;;;;5.87;4.53;;;17.30;99.90;;;;;;4972226;28;20491;-76
2021/06/22 04:17:50;;;;;;;5.40;4.23;;;17.30;99.90;;;;;;4972072;28;20463;-76
2021/06/22 04:20:18;;;;;;;5.20;4.70;;;17.30;99.90;;;;;;4971190;28;20509;-76
2021/06/22 04:22:44;;;;;;;4.80;4.40;;;17.30;99.90;;;;;;4971798;28;21266;-76
2021/06/22 04:25:14;;;;;;;4.80;4.20;;;17.30;99.90;;;;;;4971627;28;20479;-76
2021/06/22 04:27:41;;;;;;;5.67;4.70;;;17.30;99.90;;;;;;4971843;28;20879;-76
2021/06/22 04:30:09;;;;;;;4.73;4.33;;;17.40;99.90;;;;;;4970439;28;20477;-75
2021/06/22 04:32:38;;;;;;;5.27;4.77;;;17.40;99.90;;;;;;4969930;28;20489;-76
2021/06/22 04:35:05;;;;;;;5.70;5.20;;;17.40;99.90;;;;;;4971412;28;20490;-75
2021/06/22 04:37:32;;;;;;;5.90;5.27;;;17.40;99.90;;;;;;4971363;28;20466;-75
2021/06/22 04:39:59;;;;;;;5.97;5.33;;;17.40;99.90;;;;;;4970671;28;20478;-76
2021/06/22 04:42:26;;;;;;;5.23;4.73;;;17.40;99.90;;;;;;4971094;28;20505;-76
2021/06/22 04:44:53;;;;;;;5.17;4.70;;;17.40;99.90;;;;;;4971179;28;20494;-75
2021/06/22 04:47:20;;;;;;;6.77;5.10;;;17.50;99.90;;;;;;4971416;28;20565;-76
2021/06/22 04:49:48;;;;;;;5.10;4.60;;;17.50;99.90;;;;;;4970436;28;20469;-75
2021/06/22 04:52:15;;;;;;;6.03;5.53;;;17.50;99.90;;;;;;4970946;28;20495;-75
2021/06/22 04:54:41;;;;;;;8.40;5.20;;;17.60;99.90;;;;;;4970986;28;20471;-75
2021/06/22 04:57:09;;;;;;;7.07;5.50;;;17.60;99.90;;;;;;4969822;28;20918;-75
2021/06/22 04:59:37;;;;;;;9.87;5.40;;;17.60;99.90;;;;;;4973972;28;20913;-76
2021/06/22 05:02:04;;;;;;;7.77;5.73;;;17.70;99.90;;;;;;4966767;28;20467;-76
2021/06/22 05:04:31;;;;;;;7.17;6.47;;;17.70;99.90;;;;;;4970309;28;20555;-76
2021/06/22 05:06:59;;;;;;;8.03;7.23;;;17.70;99.90;;;;;;4970605;28;20463;-76
2021/06/22 05:09:26;;;;;;;8.23;7.30;;;17.80;99.90;;;;;;4970294;28;20463;-75
2021/06/22 05:11:53;;;;;;;7.83;7.07;;;17.80;99.90;;;;;;4970870;28;20474;-76
2021/06/22 05:14:20;;;;;;;11.20;9.10;;;17.80;99.90;;;;;;4969792;28;20463;-76
2021/06/22 05:16:48;;;;;;;9.90;8.57;;;17.90;99.90;;;;;;4970355;28;20497;-75
2021/06/22 05:19:15;;;;;;;9.53;8.50;;;17.90;99.90;;;;;;4970390;28;20481;-75
2021/06/22 05:21:42;;;;;;;10.30;9.40;;;17.90;99.90;;;;;;4970640;28;20459;-76
2021/06/22 05:24:10;;;;;;;9.17;8.33;;;17.90;99.90;;;;;;4970990;28;20487;-76
2021/06/22 05:26:37;;;;;;;9.07;8.27;;;18.00;99.90;;;;;;4970307;28;20497;-77
2021/06/22 05:29:04;;;;;;;10.87;9.77;;;18.00;99.90;;;;;;4970582;28;20470;-77
2021/06/22 05:31:31;;;;;;;10.80;9.83;;;18.00;99.90;;;;;;4970876;28;20467;-76
2021/06/22 05:33:58;;;;;;;12.23;11.03;;;18.00;99.90;;;;;;4970772;28;20845;-76
2021/06/22 05:36:25;;;;;;;12.50;11.20;;;18.10;99.90;;;;;;4969698;28;20494;-76
2021/06/22 05:38:51;;;;;;;9.60;8.70;;;18.10;99.90;;;;;;4970315;28;20463;-76
2021/06/22 05:41:19;;;;;;;10.70;9.80;;;18.10;99.90;;;;;;4969640;28;20467;-75
2021/06/22 05:43:46;;;;;;;11.37;10.00;;;18.10;99.90;;;;;;4969749;28;20494;-76
2021/06/22 05:46:13;;;;;;;15.00;9.57;;;18.20;99.90;;;;;;4970072;28;20858;-76
2021/06/22 05:48:39;;;;;;;11.10;10.00;;;18.20;99.90;;;;;;4969801;28;20933;-76
2021/06/22 05:51:06;;;;;;;11.53;10.40;;;18.20;99.90;;;;;;4969533;28;20467;-76
2021/06/22 05:53:33;;;;;;;10.47;9.43;;;18.20;99.90;;;;;;4969673;28;21083;-76
2021/06/22 05:55:59;;;;;;;13.10;9.57;;;18.30;99.90;;;;;;4970358;28;20493;-76
2021/06/22 05:58:27;;;;;;;11.60;10.53;;;18.30;99.90;;;;;;4969865;28;20459;-76
2021/06/22 06:00:54;;;;;;;12.47;9.43;;;18.30;99.90;;;;;;4969464;28;20470;-76
2021/06/22 06:03:21;;;;;;;12.77;8.80;;;18.30;99.90;;;;;;4969947;28;20486;-76
2021/06/22 06:05:48;;;;;;;10.33;9.27;;;18.30;99.90;;;;;;4969903;28;20493;-76
2021/06/22 06:08:14;;;;;;;9.80;8.87;;;18.30;99.90;;;;;;4970056;28;20848;-76
2021/06/22 06:10:41;;;;;;;9.20;8.30;;;18.40;99.90;;;;;;4969377;28;20470;-76
2021/06/22 06:13:08;;;;;;;12.27;9.20;;;18.40;99.90;;;;;;4970187;28;20467;-76
2021/06/22 06:15:36;;;;;;;8.50;7.80;;;18.40;99.90;;;;;;4969406;28;20493;-76
2021/06/22 06:18:03;;;;;;;9.90;9.00;;;18.40;99.90;;;;;;4970105;28;20555;-76
2021/06/22 06:20:30;;;;;;;10.40;8.80;;;18.50;99.90;;;;;;4968964;28;20470;-76
2021/06/22 06:22:57;;;;;;;10.50;9.60;;;18.50;99.90;;;;;;4970154;28;20487;-76
2021/06/22 06:25:24;;;;;;;10.67;9.57;;;18.50;99.90;;;;;;4969783;28;20850;-76
2021/06/22 06:27:56;;;;;;;9.60;8.77;;;18.50;99.90;;;;;;4973655;28;20470;-76
2021/06/22 06:30:26;;;;;;;9.80;8.90;;;18.50;99.90;;;;;;4973081;28;20966;-76
2021/06/22 06:35:23;;;;;;;10.13;8.67;;;18.60;99.90;;;;;;4971488;28;20470;-70
2021/06/22 06:37:50;;;;;;;9.10;8.20;;;18.60;99.90;;;;;;4973148;28;20455;-69
2021/06/22 06:40:18;;;;;;;10.17;8.57;;;18.60;99.90;;;;;;4973096;28;20465;-70
2021/06/22 06:42:45;;;;;;;13.43;8.10;;;18.60;99.90;;;;;;4973154;28;20463;-70
2021/06/22 06:45:13;;;;;;;9.23;7.60;;;18.70;99.90;;;;;;4973336;28;20479;-69
2021/06/22 06:47:40;;;;;;;9.83;8.90;;;18.80;99.90;;;;;;4973187;28;20843;-69
2021/06/22 06:50:08;;;;;;;9.00;8.10;;;18.80;99.90;;;;;;4972131;28;20463;-70
2021/06/22 06:52:36;;;;;;;8.40;7.60;;;18.90;99.90;;;;;;4973294;28;20475;-70
2021/06/22 06:55:05;;;;;;;9.20;8.30;;;18.90;99.90;;;;;;4972940;28;21188;-68
2021/06/22 06:57:32;;;;;;;8.50;7.70;;;19.00;99.90;;;;;;4973109;28;20466;-70
2021/06/22 06:59:58;;;;;;;8.50;7.70;;;19.10;99.90;;;;;;4972517;28;20838;-70
2021/06/22 07:02:25;;;;;;;8.70;7.83;;;19.20;99.90;;;;;;4973260;28;20469;-68
2021/06/22 07:04:52;;;;;;;8.90;7.33;;;19.30;99.90;;;;;;4972406;28;20502;-69
2021/06/22 07:07:18;;;;;;;7.47;6.60;;;19.30;99.90;;;;;;4973212;28;20478;-69
2021/06/22 07:09:46;;;;;;;6.80;6.17;;;19.30;99.90;;;;;;4972252;28;20471;-69
2021/06/22 07:12:13;;;;;;;7.10;6.40;;;19.40;99.90;;;;;;4972972;28;20481;-69
2021/06/22 07:14:40;;;;;;;7.40;5.50;;;19.50;99.90;;;;;;4972816;28;20978;-69
2021/06/22 07:17:07;;;;;;;7.20;5.93;;;19.60;99.90;;;;;;4971260;28;20467;-69
2021/06/22 07:19:33;;;;;;;6.03;5.43;;;19.60;99.90;;;;;;4971705;28;20954;-68
2021/06/22 07:22:00;;;;;;;5.63;5.00;;;19.70;99.90;;;;;;4969493;28;20459;-69
2021/06/22 07:24:27;;;;;;;5.90;5.30;;;19.80;99.90;;;;;;4972070;28;20487;-69
2021/06/22 07:26:55;;;;;;;5.10;4.57;;;19.80;99.90;;;;;;4971780;28;20510;-69
2021/06/22 07:29:21;;;;;;;5.93;4.77;;;19.80;99.90;;;;;;4971629;28;20842;-70
2021/06/22 07:31:48;;;;;;;4.87;4.47;;;19.80;99.90;;;;;;4971842;28;20455;-69
2021/06/22 07:34:15;;;;;;;4.80;4.30;;;19.80;99.90;;;;;;4971932;28;20845;-69
2021/06/22 07:36:42;;;;;;;10.03;4.60;;;19.80;99.90;;;;;;4972427;28;20487;-70
2021/06/22 07:39:08;;;;;;;4.10;3.70;;;19.80;99.90;;;;;;4971908;28;20471;-69
2021/06/22 07:41:36;;;;;;;4.60;3.90;;;19.80;99.90;;;;;;4971817;28;20466;-70
2021/06/22 07:44:04;;;;;;;4.90;3.90;;;19.90;99.90;;;;;;4971879;28;20490;-70
2021/06/22 07:46:31;;;;;;;4.70;3.60;;;20.00;99.90;;;;;;4972437;28;21040;-70
2021/06/22 07:48:58;;;;;;;3.80;3.30;;;20.10;99.90;;;;;;4972115;28;20474;-70
2021/06/22 07:51:25;;;;;;;5.30;3.97;;;20.20;99.90;;;;;;4972315;28;20462;-70
2021/06/22 07:53:51;;;;;;;4.17;3.77;;;20.20;99.90;;;;;;4972229;28;20462;-70
2021/06/22 07:56:18;;;;;;;3.93;3.50;;;20.30;99.90;;;;;;4972210;28;20479;-70
2021/06/22 07:58:45;;;;;;;5.07;3.90;;;20.30;99.90;;;;;;4972414;28;20471;-69
2021/06/22 08:01:13;;;;;;;3.53;3.23;;;20.30;99.90;;;;;;4971553;28;20471;-69
2021/06/22 08:03:40;;;;;;;3.37;2.80;;;20.20;99.90;;;;;;4972144;28;20575;-70
2021/06/22 08:06:06;;;;;;;2.87;2.57;;;20.10;99.90;;;;;;4971714;28;20621;-69
2021/06/22 08:08:33;;;;;;;3.37;2.77;;;20.10;99.90;;;;;;4972097;28;20471;-70
2021/06/22 08:11:01;;;;;;;2.73;2.53;;;20.00;99.90;;;;;;4971329;28;20473;-70
2021/06/22 08:13:28;;;;;;;4.20;2.90;;;20.00;99.90;;;;;;4972028;28;20466;-70
2021/06/22 08:15:56;;;;;;;5.20;2.60;;;20.00;99.90;;;;;;4971603;28;20951;-69
2021/06/22 08:18:24;;;;;;;2.90;2.60;;;20.00;99.90;;;;;;4971704;28;20463;-70
2021/06/22 08:20:52;;;;;;;3.20;2.90;;;19.90;99.90;;;;;;4971263;28;20557;-69
2021/06/22 08:23:19;;;;;;;3.20;2.60;;;19.90;99.90;;;;;;4971603;28;20467;-69
2021/06/22 08:25:47;;;;;;;6.67;3.20;;;19.80;99.90;;;;;;4971640;28;20490;-70
2021/06/22 08:28:13;;;;;;;3.33;2.90;;;19.80;99.90;;;;;;4971327;28;20463;-70
2021/06/22 08:30:40;;;;;;;3.47;2.83;;;19.80;99.90;;;;;;4971313;28;20474;-70
2021/06/22 08:33:08;;;;;;;3.30;3.00;;;19.80;99.90;;;;;;4970927;28;20482;-70
2021/06/22 08:35:37;;;;;;;3.20;2.90;;;19.80;99.90;;;;;;4970705;28;20864;-69
2021/06/22 08:38:05;;;;;;;3.30;2.80;;;19.80;99.90;;;;;;4970469;28;20462;-70
2021/06/22 08:40:32;;;;;;;3.80;3.23;;;19.90;99.90;;;;;;4970094;28;20549;-70
2021/06/22 08:42:58;;;;;;;3.70;3.00;;;19.90;99.90;;;;;;4970154;28;20463;-70
2021/06/22 08:45:26;;;;;;;3.10;2.80;;;20.00;99.90;;;;;;4969629;28;20495;-69
2021/06/22 08:47:53;;;;;;;6.13;2.93;;;20.00;99.90;;;;;;4969588;28;20473;-69
2021/06/22 08:50:20;;;;;;;3.50;3.20;;;20.00;99.90;;;;;;4968409;28;20866;-69
2021/06/22 08:52:48;;;;;;;3.50;3.17;;;19.90;99.90;;;;;;4969499;28;20459;-69
2021/06/22 08:55:27;;;;;;;3.77;3.20;;;19.90;99.90;;;;;;4969380;28;20487;-70
2021/06/22 08:57:55;;;;;;;3.57;3.30;;;20.00;99.90;;;;;;4969763;28;20463;-70
2021/06/22 09:00:22;;;;;;;4.10;3.50;;;20.00;99.90;;;;;;4969254;28;20463;-70
2021/06/22 09:03:03;;;;;;;3.87;3.23;;;19.90;99.90;;;;;;4969382;28;20459;-69
2021/06/22 09:05:30;;;;;;;4.70;3.33;;;19.90;99.90;;;;;;4969625;28;20501;-69
2021/06/22 09:07:58;;;;;;;4.83;3.97;;;19.90;99.90;;;;;;4969279;28;20459;-70
2021/06/22 09:10:27;;;;;;;4.00;3.60;;;19.90;99.90;;;;;;4969344;28;20467;-69
2021/06/22 09:12:54;;;;;;;4.23;3.80;;;19.90;99.90;;;;;;4969146;28;20470;-70
2021/06/22 09:15:24;;;;;;;4.27;3.87;;;19.90;99.90;;;;;;4969785;28;20483;-70
2021/06/22 09:17:52;;;;;;;4.27;3.87;;;19.90;99.90;;;;;;4969199;28;20467;-69
2021/06/22 09:20:38;;;;;;;4.00;3.70;;;19.90;99.90;;;;;;4969054;28;20977;-70
2021/06/22 09:23:12;;;;;;;3.67;3.37;;;19.90;99.90;;;;;;4968564;28;20470;-69
2021/06/22 09:25:39;;;;;;;4.90;3.13;;;19.90;99.90;;;;;;4969167;28;21034;-70
2021/06/22 09:28:06;;;;;;;6.70;3.53;;;20.00;99.90;;;;;;4968904;28;20848;-70
2021/06/22 09:30:43;;;;;;;6.70;4.20;;;20.10;99.90;;;;;;4968655;28;20458;-69
2021/06/22 09:33:19;;;;;;;4.40;4.00;;;20.10;99.90;;;;;;4966949;28;67213;-70
2021/06/22 09:35:47;;;;;;;4.23;3.83;;;20.10;99.90;;;;;;4970121;28;20475;-69
2021/06/22 09:38:15;;;;;;;4.43;4.03;;;20.20;99.90;;;;;;4970439;28;20471;-68
2021/06/22 09:40:42;;;;;;;4.00;3.70;;;20.20;99.90;;;;;;4969336;28;20899;-69
2021/06/22 09:43:09;;;;;;;4.43;3.90;;;20.20;99.90;;;;;;4969673;28;21015;-70
2021/06/22 09:45:37;;;;;;;4.80;4.40;;;20.30;99.90;;;;;;4969624;28;20491;-69
2021/06/22 09:48:05;;;;;;;4.07;3.67;;;20.30;99.90;;;;;;4964492;28;20541;-69
2021/06/22 09:50:38;;;;;;;5.67;4.30;;;20.40;99.90;;;;;;4966780;28;20463;-69
2021/06/22 09:53:30;;;;;;;5.30;4.90;;;20.40;99.90;;;;;;4966890;28;20522;-69
2021/06/22 09:55:58;;;;;;;5.10;4.47;;;20.40;99.90;;;;;;4966053;28;21088;-69
2021/06/22 09:58:44;;;;;;;4.90;4.50;;;20.30;99.90;;;;;;4966363;28;21000;-69
2021/06/22 10:01:32;;;;;;;6.67;6.00;;;20.30;99.90;;;;;;4969771;28;20557;-70
2021/06/22 10:04:18;;;;;;;8.63;5.67;;;20.20;99.90;;;;;;4973005;28;20486;-71
2021/06/22 10:06:52;;;;;;;8.57;6.20;;;20.10;99.90;;;;;;4972695;28;20864;-70
2021/06/22 10:09:28;;;;;;;8.43;6.10;;;20.00;99.90;;;;;;4972398;28;20978;-69
2021/06/22 10:12:03;;;;;;;6.20;5.60;;;20.00;99.90;;;;;;4973328;28;20904;-69
2021/06/22 10:14:32;;;;;;;8.47;6.73;;;20.00;99.90;;;;;;4973467;28;20463;-69
2021/06/22 10:17:00;;;;;;;6.03;5.53;;;20.00;99.90;;;;;;4971715;28;20500;-69
2021/06/22 10:19:28;;;;;;;6.93;6.27;;;20.10;99.90;;;;;;4972718;28;20471;-69
2021/06/22 10:21:55;;;;;;;6.00;5.50;;;20.10;99.90;;;;;;4973105;28;20467;-69
2021/06/22 10:24:23;;;;;;;7.77;5.37;;;20.10;99.90;;;;;;4973151;28;20516;-70
2021/06/22 10:26:53;;;;;;;7.00;5.90;;;20.00;99.90;;;;;;4973078;28;20509;-70
2021/06/22 10:29:22;;;;;;;6.17;5.63;;;19.90;99.90;;;;;;4972873;28;20487;-69
2021/06/22 10:31:50;;;;;;;5.67;5.10;;;19.90;99.90;;;;;;4972894;28;20542;-69
2021/06/22 10:34:17;;;;;;;6.87;5.50;;;19.80;99.90;;;;;;4973016;28;20503;-70
2021/06/22 10:36:51;;;;;;;7.13;5.93;;;19.70;99.90;;;;;;4972822;28;20483;-69
2021/06/22 10:39:22;;;;;;;5.70;5.20;;;19.60;99.90;;;;;;4972849;28;20829;-69
2021/06/22 10:41:51;;;;;;;8.77;5.83;;;19.50;99.90;;;;;;4972752;28;20467;-69
2021/06/22 10:44:42;;;;;;;7.07;6.30;;;19.40;99.90;;;;;;4972975;28;20518;-70
2021/06/22 10:47:30;;;;;;;6.07;5.43;;;19.30;99.90;;;;;;4972628;28;20518;-70
2021/06/22 10:50:31;;;;;;;6.10;5.10;;;19.10;99.90;;;;;;4972195;28;20473;-70
2021/06/22 10:53:03;;;;;;;5.97;5.37;;;19.10;99.90;;;;;;4972237;28;20550;-70
2021/06/22 10:55:58;;;;;;;7.23;5.40;;;19.00;99.90;;;;;;4972842;28;20478;-70
2021/06/22 10:58:26;;;;;;;5.43;4.93;;;18.90;99.90;;;;;;4972718;28;20462;-69
2021/06/22 11:01:19;;;;;;;5.57;4.77;;;18.90;99.90;;;;;;4978395;28;20466;-69
2021/06/22 11:04:03;;;;;;;4.83;4.43;;;18.80;99.90;;;;;;4982177;28;20849;-70
2021/06/22 11:06:30;;;;;;;5.67;5.07;;;18.80;99.90;;;;;;4990207;28;20473;-70
2021/06/22 11:09:20;;;;;;;5.73;5.20;;;18.70;99.90;;;;;;4972018;28;20479;-70
2021/06/22 11:11:47;;;;;;;7.60;5.53;;;18.70;99.90;;;;;;4971847;28;20459;-70
2021/06/22 11:14:17;;;;;;;5.90;5.30;;;18.60;99.90;;;;;;4972485;28;20469;-69
2021/06/22 11:16:43;;;;;;;6.20;5.60;;;18.50;99.90;;;;;;4971777;28;20586;-70
2021/06/22 11:19:12;;;;;;;5.70;5.20;;;18.50;99.90;;;;;;4971905;28;20838;-69
2021/06/22 11:21:52;;;;;;;6.00;5.50;;;18.50;99.90;;;;;;4972049;28;20526;-70
2021/06/22 11:24:20;;;;;;;10.80;7.37;;;18.50;99.90;;;;;;4972240;28;20509;-70
2021/06/22 11:27:04;;;;;;;8.43;6.80;;;18.50;99.90;;;;;;4971558;28;20483;-69
2021/06/22 11:29:50;;;;;;;6.30;5.70;;;18.50;99.90;;;;;;4971538;28;20481;-69
2021/06/22 11:32:37;;;;;;;8.73;6.23;;;18.50;99.90;;;;;;4971828;28;20467;-69
2021/06/22 11:35:11;;;;;;;6.73;6.03;;;18.60;99.90;;;;;;4952329;28;20502;-70
2021/06/22 11:37:37;;;;;;;8.33;6.50;;;18.50;99.90;;;;;;4952693;28;20464;-69
2021/06/22 11:40:14;;;;;;;7.57;6.30;;;18.50;99.90;;;;;;4951783;28;20463;-69
2021/06/22 11:42:43;;;;;;;9.60;7.20;;;18.60;99.90;;;;;;4971212;28;20463;-70
2021/06/22 11:45:22;;;;;;;7.30;6.23;;;18.50;99.90;;;;;;4971274;28;20491;-68
2021/06/22 11:47:55;;;;;;;9.80;7.00;;;18.50;99.90;;;;;;4971521;28;20466;-70
2021/06/22 11:50:33;;;;;;;8.37;6.77;;;18.50;99.90;;;;;;4970947;28;20993;-70
2021/06/22 11:53:09;;;;;;;6.97;6.27;;;18.40;99.90;;;;;;4971120;28;20473;-69
2021/06/22 11:55:42;;;;;;;6.53;5.93;;;18.50;99.90;;;;;;4971333;28;20494;-70
2021/06/22 11:58:09;;;;;;;6.27;5.67;;;18.50;99.90;;;;;;4971324;28;20880;-70
2021/06/22 12:00:37;;;;;;;6.00;5.40;;;18.50;99.90;;;;;;4970797;28;20466;-70
2021/06/22 12:03:06;;;;;;;6.40;5.80;;;18.50;99.90;;;;;;4971045;28;20981;-70
2021/06/22 12:05:35;;;;;;;5.83;5.13;;;18.50;99.90;;;;;;4970987;28;20502;-69
2021/06/22 12:08:03;;;;;;;6.37;5.73;;;18.50;99.90;;;;;;4970940;28;20832;-70
2021/06/22 12:10:43;;;;;;;5.90;5.30;;;18.50;99.90;;;;;;4970259;28;20474;-70
2021/06/22 12:13:10;;;;;;;6.13;5.10;;;18.40;99.90;;;;;;4971042;28;20470;-70
2021/06/22 12:15:41;;;;;;;6.87;5.57;;;18.40;99.90;;;;;;4971196;28;20860;-70
2021/06/22 12:18:09;;;;;;;6.90;5.23;;;18.40;99.90;;;;;;4969032;28;20459;-70
2021/06/22 12:20:39;;;;;;;5.33;4.83;;;18.40;99.90;;;;;;4969315;28;20463;-70
2021/06/22 12:23:08;;;;;;;6.70;6.10;;;18.40;99.90;;;;;;4970513;28;21019;-70
2021/06/22 12:25:37;;;;;;;5.73;5.10;;;18.30;99.90;;;;;;4970712;28;20869;-70
2021/06/22 12:28:05;;;;;;;6.73;6.10;;;18.30;99.90;;;;;;4970342;28;20871;-69
2021/06/22 12:30:39;;;;;;;6.83;5.33;;;18.20;99.90;;;;;;4970403;28;20477;-70
2021/06/22 12:33:11;;;;;;;6.17;5.53;;;18.20;99.90;;;;;;4970085;28;20462;-70
2021/06/22 12:35:38;;;;;;;7.40;5.23;;;18.20;99.90;;;;;;5014095;23;20496;-78
2021/06/22 12:38:06;;;;;;;5.70;4.70;;;18.20;99.90;;;;;;4951741;29;20459;-78
2021/06/22 12:40:39;;;;;;;6.17;5.20;;;18.20;99.90;;;;;;4946477;29;20480;-79
2021/06/22 12:43:06;;;;;;;6.10;5.60;;;18.20;99.90;;;;;;4932554;29;20465;-77
2021/06/22 12:45:33;;;;;;;8.43;5.87;;;18.10;99.90;;;;;;4931915;29;20501;-77
2021/06/22 12:48:01;;;;;;;7.53;6.60;;;18.10;99.90;;;;;;4932216;29;20476;-79
2021/06/22 12:50:30;;;;;;;7.57;5.60;;;18.10;99.90;;;;;;4931529;29;20472;-78
2021/06/22 12:52:58;;;;;;;11.43;5.80;;;18.20;99.90;;;;;;4931949;29;20473;-78
2021/06/22 12:55:37;;;;;;;5.70;5.10;;;18.20;99.90;;;;;;4932103;29;20481;-78
2021/06/22 12:58:06;;;;;;;5.97;5.17;;;18.30;99.90;;;;;;4932046;29;20465;-78
2021/06/22 13:00:37;;;;;;;5.60;5.10;;;18.40;99.90;;;;;;4931194;29;20501;-77